createdAt,value
2022-12-31T00:01:27.775Z,43.20
2022-12-31T00:06:37.528Z,35.70
2022-12-31T00:11:38.471Z,37.10
2022-12-31T00:16:41.751Z,33.20
2022-12-31T00:21:42.483Z,29.60
2022-12-31T00:26:42.183Z,32.50
2022-12-31T00:31:42.506Z,35.00
2022-12-31T00:36:46.272Z,28.10
2022-12-31T00:41:45.600Z,37.20
2022-12-31T00:46:46.009Z,31.50
2022-12-31T00:51:46.890Z,36.00
2022-12-31T00:56:46.813Z,32.10
2022-12-31T01:01:48.314Z,30.30
2022-12-31T01:06:48.801Z,37.00
2022-12-31T01:11:51.400Z,35.00
2022-12-31T01:16:53.580Z,32.00
2022-12-31T01:21:55.910Z,37.60
2022-12-31T01:26:58.074Z,34.50
2022-12-31T01:31:59.085Z,32.20
2022-12-31T01:36:58.723Z,32.90
2022-12-31T01:41:57.840Z,31.70
2022-12-31T01:47:02.147Z,31.60
2022-12-31T01:52:08.244Z,32.00
2022-12-31T01:57:11.423Z,32.20
2022-12-31T02:02:11.325Z,31.10
2022-12-31T02:07:14.067Z,31.60
2022-12-31T02:12:14.308Z,24.60
2022-12-31T02:17:29.192Z,32.00
2022-12-31T02:23:03.253Z,30.20
2022-12-31T02:28:18.090Z,26.90
2022-12-31T02:33:29.941Z,24.20
2022-12-31T02:38:33.947Z,30.50
2022-12-31T02:43:35.240Z,27.70
2022-12-31T02:49:02.460Z,30.00
2022-12-31T02:54:24.599Z,24.60
2022-12-31T02:59:49.534Z,27.30
2022-12-31T03:04:54.980Z,26.20
2022-12-31T03:09:54.601Z,29.90
2022-12-31T03:14:54.307Z,27.40
2022-12-31T03:20:11.345Z,27.70
2022-12-31T03:25:33.485Z,22.60
2022-12-31T03:30:34.563Z,22.90
2022-12-31T03:35:36.295Z,25.10
2022-12-31T03:40:41.317Z,25.80
2022-12-31T03:45:40.646Z,25.30
2022-12-31T03:50:40.418Z,24.70
2022-12-31T03:55:39.944Z,21.70
2022-12-31T04:00:39.136Z,22.30
2022-12-31T04:05:39.022Z,19.00
2022-12-31T04:10:37.612Z,21.20
2022-12-31T04:15:36.907Z,21.00
2022-12-31T04:20:35.738Z,15.60
2022-12-31T04:25:35.146Z,19.30
2022-12-31T04:30:34.828Z,20.80
2022-12-31T04:35:33.382Z,22.40
2022-12-31T04:40:32.211Z,18.00
2022-12-31T04:45:31.769Z,19.20
2022-12-31T04:50:32.172Z,18.60
2022-12-31T04:55:34.640Z,18.30
2022-12-31T05:00:34.929Z,21.50
2022-12-31T05:05:34.006Z,16.90
2022-12-31T05:10:33.728Z,17.20
2022-12-31T05:15:32.900Z,18.40
2022-12-31T05:20:32.327Z,18.90
2022-12-31T05:25:32.232Z,17.60
2022-12-31T05:30:31.890Z,18.90
2022-12-31T05:35:32.887Z,17.50
2022-12-31T05:40:33.056Z,18.60
2022-12-31T05:45:32.650Z,21.70
2022-12-31T05:50:32.908Z,18.20
2022-12-31T05:55:34.163Z,17.10
2022-12-31T06:00:33.629Z,21.50
2022-12-31T06:05:33.450Z,18.90
2022-12-31T06:10:33.201Z,18.00
2022-12-31T06:15:33.264Z,19.20
2022-12-31T06:20:32.764Z,18.00
2022-12-31T06:25:32.519Z,18.00
2022-12-31T06:30:31.993Z,17.50
2022-12-31T06:35:30.819Z,16.00
2022-12-31T06:40:30.451Z,17.40
2022-12-31T06:45:29.930Z,15.70
2022-12-31T06:50:29.064Z,18.80
2022-12-31T06:55:33.727Z,16.50
2022-12-31T07:00:37.191Z,16.90
2022-12-31T07:05:52.331Z,17.00
2022-12-31T07:11:01.456Z,16.70
2022-12-31T07:16:23.313Z,15.60
2022-12-31T07:21:31.848Z,14.00
2022-12-31T07:26:56.396Z,14.90
2022-12-31T07:32:12.827Z,15.40
2022-12-31T07:37:27.256Z,17.90
2022-12-31T07:42:38.363Z,12.80
2022-12-31T07:47:39.473Z,15.70
2022-12-31T07:52:40.115Z,16.00
2022-12-31T07:57:49.679Z,12.70
2022-12-31T08:03:18.578Z,12.60
2022-12-31T08:08:34.114Z,15.70
2022-12-31T08:13:35.357Z,15.30
2022-12-31T08:18:36.296Z,13.00
2022-12-31T08:23:42.910Z,11.30
2022-12-31T08:29:03.524Z,11.50
2022-12-31T08:34:27.601Z,14.80
2022-12-31T08:39:43.759Z,14.30
2022-12-31T08:45:00.141Z,13.70
2022-12-31T08:50:01.673Z,12.70
2022-12-31T08:55:03.366Z,14.70
2022-12-31T09:00:14.636Z,13.00
2022-12-31T09:05:26.320Z,11.10
2022-12-31T09:10:37.151Z,11.80
2022-12-31T09:15:50.355Z,11.40
2022-12-31T09:20:51.420Z,12.10
2022-12-31T09:26:14.793Z,12.00
2022-12-31T09:31:24.710Z,11.50
2022-12-31T09:36:32.485Z,8.10
2022-12-31T09:42:13.680Z,8.70
2022-12-31T09:48:18.232Z,9.60
2022-12-31T09:53:50.787Z,10.50
2022-12-31T09:59:07.043Z,9.30
2022-12-31T10:04:44.868Z,8.60
2022-12-31T10:10:02.479Z,8.60
2022-12-31T10:15:31.703Z,7.50
2022-12-31T10:20:47.986Z,9.40
2022-12-31T10:26:22.982Z,7.80
2022-12-31T10:31:49.851Z,7.80
2022-12-31T10:37:17.026Z,9.40
2022-12-31T10:43:18.864Z,7.80
2022-12-31T10:49:35.681Z,9.40
2022-12-31T10:55:27.740Z,7.40
2022-12-31T11:00:31.317Z,8.20
2022-12-31T11:06:16.351Z,6.80
2022-12-31T11:11:31.543Z,6.50
2022-12-31T11:16:54.027Z,8.70
2022-12-31T11:22:22.722Z,7.20
2022-12-31T11:27:49.888Z,7.80
2022-12-31T11:33:16.552Z,6.80
2022-12-31T11:38:27.353Z,8.10
2022-12-31T11:43:39.134Z,6.10
2022-12-31T11:48:48.396Z,7.40
2022-12-31T11:54:26.898Z,6.10
2022-12-31T11:59:26.997Z,7.70
2022-12-31T12:04:28.426Z,7.20
2022-12-31T12:09:36.049Z,7.90
2022-12-31T12:14:55.684Z,6.40
2022-12-31T12:20:02.162Z,6.20
2022-12-31T12:25:08.055Z,6.60
2022-12-31T12:30:27.420Z,7.50
2022-12-31T12:35:33.456Z,7.40
2022-12-31T12:40:36.365Z,7.40
2022-12-31T12:45:51.767Z,7.10
2022-12-31T12:50:53.184Z,5.40
2022-12-31T12:56:06.122Z,7.00
2022-12-31T13:01:18.567Z,5.90
2022-12-31T13:06:41.046Z,7.00
2022-12-31T13:11:53.151Z,5.80
2022-12-31T13:17:09.380Z,7.70
2022-12-31T13:22:21.505Z,7.70
2022-12-31T13:27:29.512Z,6.80
2022-12-31T13:32:40.232Z,5.70
2022-12-31T13:37:44.385Z,6.90
2022-12-31T13:42:55.024Z,6.20
2022-12-31T13:48:02.112Z,6.50
2022-12-31T13:53:15.624Z,7.20
2022-12-31T13:58:31.967Z,6.70
2022-12-31T14:03:46.753Z,5.80
2022-12-31T14:08:46.792Z,6.90
2022-12-31T14:14:02.852Z,7.30
2022-12-31T14:19:16.217Z,7.50
2022-12-31T14:24:29.158Z,5.90
2022-12-31T14:29:42.253Z,6.70
2022-12-31T14:34:53.784Z,11.80
2022-12-31T14:40:11.430Z,6.80
2022-12-31T14:45:29.554Z,5.90
2022-12-31T14:50:34.100Z,6.20
2022-12-31T14:55:37.225Z,7.20
2022-12-31T15:00:53.415Z,6.40
2022-12-31T15:06:01.818Z,5.00
2022-12-31T15:11:30.029Z,5.90
2022-12-31T15:16:46.504Z,5.50
2022-12-31T15:22:06.447Z,5.60
2022-12-31T15:27:20.507Z,5.40
2022-12-31T15:32:26.488Z,6.70
2022-12-31T15:37:37.297Z,6.80
2022-12-31T15:42:51.159Z,6.00
2022-12-31T15:47:57.847Z,7.30
2022-12-31T15:52:59.765Z,6.10
2022-12-31T15:58:05.378Z,7.80
2022-12-31T16:03:04.502Z,6.10
2022-12-31T16:08:06.098Z,7.10
2022-12-31T16:13:06.396Z,5.00
2022-12-31T16:18:15.773Z,6.20
2022-12-31T16:23:27.740Z,6.50
2022-12-31T16:28:32.768Z,7.00
2022-12-31T16:33:34.076Z,6.50
2022-12-31T16:38:41.119Z,7.30
2022-12-31T16:43:44.825Z,7.90
2022-12-31T16:48:52.329Z,6.80
2022-12-31T16:53:53.476Z,4.60
2022-12-31T16:58:58.901Z,5.40
2022-12-31T17:04:06.139Z,6.70
2022-12-31T17:09:20.876Z,7.70
2022-12-31T17:14:24.855Z,6.30
2022-12-31T17:19:40.094Z,6.90
2022-12-31T17:24:42.263Z,6.30
2022-12-31T17:29:42.119Z,7.10
2022-12-31T17:34:52.675Z,6.10
2022-12-31T17:40:49.989Z,6.40
2022-12-31T17:45:25.344Z,9.70
2022-12-31T17:50:29.740Z,7.20
2022-12-31T17:55:30.772Z,6.30
2022-12-31T18:00:33.417Z,5.40
2022-12-31T18:05:33.510Z,5.20
2022-12-31T18:10:38.286Z,5.20
2022-12-31T18:15:36.845Z,6.80
2022-12-31T18:20:36.275Z,6.70
2022-12-31T18:30:34.116Z,6.30
2022-12-31T18:36:07.228Z,7.20
2022-12-31T18:40:59.768Z,6.00
2022-12-31T18:46:02.381Z,7.80
2022-12-31T18:51:03.778Z,6.80
2022-12-31T18:56:03.345Z,6.20
2022-12-31T19:01:02.676Z,5.30
2022-12-31T19:06:02.156Z,6.10
2022-12-31T19:11:02.767Z,7.20
2022-12-31T19:16:04.082Z,7.90
2022-12-31T19:21:05.091Z,8.20
2022-12-31T19:26:04.407Z,7.40
2022-12-31T19:31:08.041Z,6.00
2022-12-31T19:36:15.112Z,5.90
2022-12-31T19:41:21.181Z,6.60
2022-12-31T19:46:21.697Z,7.00
2022-12-31T19:51:23.564Z,6.40
2022-12-31T19:56:24.884Z,7.70
2022-12-31T20:01:28.710Z,8.20
2022-12-31T20:06:31.258Z,7.20
2022-12-31T20:11:31.512Z,9.30
2022-12-31T20:16:32.015Z,6.70
2022-12-31T20:21:35.748Z,6.80
2022-12-31T20:26:35.108Z,7.00
2022-12-31T20:31:34.651Z,7.70
2022-12-31T20:36:33.883Z,7.30
2022-12-31T20:41:33.547Z,8.80
2022-12-31T20:46:36.826Z,7.20
2022-12-31T20:51:38.117Z,7.30
2022-12-31T20:56:40.868Z,7.90
2022-12-31T21:02:19.314Z,6.10
2022-12-31T21:07:00.586Z,7.80
2022-12-31T21:12:17.165Z,7.00
2022-12-31T21:17:16.666Z,7.20
2022-12-31T21:22:16.161Z,7.20
2022-12-31T21:27:18.492Z,9.00
2022-12-31T21:32:18.197Z,7.00
2022-12-31T21:37:17.561Z,8.90
2022-12-31T21:42:18.296Z,6.70
2022-12-31T21:47:39.480Z,8.10
2022-12-31T21:52:42.356Z,7.60
2022-12-31T21:58:15.629Z,9.00
2022-12-31T22:03:20.108Z,6.50
2022-12-31T22:08:19.865Z,6.30
2022-12-31T22:13:20.095Z,7.40
2022-12-31T22:18:20.558Z,7.60
2022-12-31T22:23:20.538Z,5.80
2022-12-31T22:33:39.309Z,6.60
2022-12-31T22:38:39.273Z,8.30
2022-12-31T22:43:41.775Z,8.20
2022-12-31T22:48:42.928Z,7.10
2022-12-31T22:53:44.787Z,7.80
2022-12-31T22:58:45.602Z,9.10
2022-12-31T23:03:46.680Z,16.60
2022-12-31T23:09:07.247Z,25.20
2022-12-31T23:14:30.133Z,22.70
2022-12-31T23:19:47.524Z,20.00
2022-12-31T23:24:47.156Z,17.30
2022-12-31T23:29:47.692Z,20.20
2022-12-31T23:34:48.245Z,16.90
2022-12-31T23:39:47.890Z,18.10
2022-12-31T23:44:49.663Z,17.40
2022-12-31T23:49:49.419Z,18.20
2022-12-31T23:54:48.877Z,16.50
2022-12-31T23:59:49.403Z,12.80
